createdAt,value
2022-08-09T00:00:04.161Z,2.13
2022-08-09T00:02:32.213Z,2.30
2022-08-09T00:05:03.037Z,1.88
2022-08-09T00:07:46.014Z,2.25
2022-08-09T00:10:21.153Z,2.28
2022-08-09T00:12:52.651Z,2.20
2022-08-09T00:15:19.905Z,2.38
2022-08-09T00:18:05.106Z,2.60
2022-08-09T00:20:38.410Z,2.25
2022-08-09T00:23:55.408Z,2.00
2022-08-09T00:25:57.298Z,2.10
2022-08-09T00:28:27.229Z,2.22
2022-08-09T00:30:54.188Z,2.30
2022-08-09T00:33:20.753Z,2.25
2022-08-09T00:36:07.799Z,2.33
2022-08-09T00:38:35.070Z,2.25
2022-08-09T00:41:03.367Z,2.47
2022-08-09T00:44:16.909Z,2.25
2022-08-09T00:46:45.392Z,2.17
2022-08-09T00:49:08.166Z,2.65
2022-08-09T00:51:54.226Z,2.22
2022-08-09T00:54:22.738Z,2.50
2022-08-09T00:56:59.239Z,2.60
2022-08-09T00:59:41.389Z,2.17
2022-08-09T01:02:17.764Z,2.33
2022-08-09T01:04:49.140Z,2.53
2022-08-09T01:07:37.654Z,2.40
2022-08-09T01:10:18.131Z,2.60
2022-08-09T01:12:54.668Z,2.55
2022-08-09T01:15:24.447Z,2.50
2022-08-09T01:17:58.254Z,2.78
2022-08-09T01:20:34.901Z,2.70
2022-08-09T01:24:03.160Z,2.30
2022-08-09T01:26:21.933Z,2.80
2022-08-09T01:28:55.241Z,2.58
2022-08-09T01:32:30.118Z,2.20
2022-08-09T01:34:17.127Z,2.30
2022-08-09T01:36:46.550Z,2.50
2022-08-09T01:39:16.831Z,2.72
2022-08-09T01:41:55.939Z,2.75
2022-08-09T01:44:30.634Z,2.47
2022-08-09T01:46:59.877Z,2.60
2022-08-09T01:49:38.776Z,2.67
2022-08-09T01:52:10.203Z,2.40
2022-08-09T01:54:40.601Z,2.50
2022-08-09T01:57:14.826Z,2.50
2022-08-09T01:59:51.819Z,2.70
2022-08-09T02:02:22.042Z,2.47
2022-08-09T02:04:50.991Z,2.78
2022-08-09T02:08:40.511Z,4.43
2022-08-09T02:10:11.144Z,2.92
2022-08-09T02:12:39.274Z,2.80
2022-08-09T02:15:11.969Z,2.33
2022-08-09T02:18:01.595Z,2.63
2022-08-09T02:20:35.067Z,3.05
2022-08-09T02:23:07.887Z,2.58
2022-08-09T02:28:17.783Z,3.20
2022-08-09T02:30:49.572Z,2.97
2022-08-09T02:33:22.990Z,2.88
2022-08-09T02:36:02.729Z,2.80
2022-08-09T02:38:34.922Z,3.00
2022-08-09T02:41:08.334Z,3.17
2022-08-09T02:43:54.208Z,3.30
2022-08-09T02:46:27.416Z,3.40
2022-08-09T02:48:57.995Z,2.90
2022-08-09T02:51:27.793Z,2.70
2022-08-09T02:54:02.897Z,3.30
2022-08-09T02:56:32.259Z,2.90
2022-08-09T02:59:02.202Z,2.80
2022-08-09T03:01:58.716Z,2.95
2022-08-09T03:04:19.916Z,3.22
2022-08-09T03:06:48.722Z,3.88
2022-08-09T03:09:17.365Z,3.05
2022-08-09T03:12:10.428Z,2.80
2022-08-09T03:14:32.853Z,3.00
2022-08-09T03:17:02.529Z,3.28
2022-08-09T03:19:58.503Z,3.40
2022-08-09T03:22:25.341Z,2.78
2022-08-09T03:25:25.814Z,3.75
2022-08-09T03:27:56.228Z,3.10
2022-08-09T03:30:29.291Z,3.25
2022-08-09T03:33:12.768Z,3.45
2022-08-09T03:36:11.206Z,3.33
2022-08-09T03:38:30.492Z,3.40
2022-08-09T03:40:57.375Z,3.50
2022-08-09T03:43:23.916Z,3.58
2022-08-09T03:46:03.342Z,3.63
2022-08-09T03:48:43.021Z,3.38
2022-08-09T03:51:56.441Z,4.10
2022-08-09T03:54:10.629Z,3.40
2022-08-09T03:56:38.337Z,3.70
2022-08-09T03:59:08.609Z,3.35
2022-08-09T04:01:41.896Z,3.58
2022-08-09T04:04:14.724Z,3.63
2022-08-09T04:06:48.879Z,3.53
2022-08-09T04:11:59.026Z,3.28
2022-08-09T04:14:59.143Z,2.97
2022-08-09T04:17:15.689Z,3.17
2022-08-09T04:19:51.406Z,3.42
2022-08-09T04:22:22.500Z,3.22
2022-08-09T04:24:49.079Z,3.58
2022-08-09T04:27:17.463Z,2.88
2022-08-09T04:29:49.587Z,3.15
2022-08-09T04:32:17.145Z,3.40
2022-08-09T04:35:01.236Z,3.33
2022-08-09T04:37:42.178Z,2.95
2022-08-09T04:40:28.857Z,3.28
2022-08-09T04:43:01.058Z,3.15
2022-08-09T04:45:30.457Z,3.10
2022-08-09T04:48:00.175Z,3.20
2022-08-09T04:50:35.021Z,3.50
2022-08-09T04:53:05.393Z,3.50
2022-08-09T04:55:57.478Z,2.97
2022-08-09T04:58:24.901Z,3.53
2022-08-09T05:00:52.632Z,3.00
2022-08-09T05:03:41.305Z,3.40
2022-08-09T05:06:11.487Z,3.17
2022-08-09T05:08:38.263Z,3.25
2022-08-09T05:11:06.717Z,3.60
2022-08-09T05:13:38.668Z,3.15
2022-08-09T05:16:06.786Z,3.40
2022-08-09T05:18:57.223Z,2.97
2022-08-09T05:21:24.451Z,3.60
2022-08-09T05:24:00.892Z,3.10
2022-08-09T05:26:37.211Z,3.72
2022-08-09T05:29:17.328Z,3.20
2022-08-09T05:31:46.849Z,3.33
2022-08-09T05:34:17.690Z,3.17
2022-08-09T05:36:46.826Z,2.92
2022-08-09T05:39:14.085Z,2.72
2022-08-09T05:41:55.354Z,2.65
2022-08-09T05:44:22.212Z,2.70
2022-08-09T05:46:55.817Z,2.72
2022-08-09T05:50:23.547Z,2.80
2022-08-09T05:52:10.528Z,2.60
2022-08-09T05:54:37.119Z,3.00
2022-08-09T05:57:06.294Z,2.55
2022-08-09T05:59:33.222Z,2.60
2022-08-09T06:02:00.151Z,2.97
2022-08-09T06:04:34.576Z,2.55
2022-08-09T06:07:01.794Z,3.47
2022-08-09T06:09:53.852Z,2.50
2022-08-09T06:12:16.442Z,3.25
2022-08-09T06:14:43.749Z,2.60
2022-08-09T06:17:10.407Z,2.60
2022-08-09T06:19:37.515Z,2.72
2022-08-09T06:22:04.923Z,2.47
2022-08-09T06:24:32.859Z,2.50
2022-08-09T06:27:01.895Z,2.85
2022-08-09T06:29:28.473Z,2.28
2022-08-09T06:32:24.635Z,2.47
2022-08-09T06:34:41.683Z,2.80
2022-08-09T06:37:09.934Z,2.60
2022-08-09T06:39:48.248Z,2.25
2022-08-09T06:42:30.567Z,2.33
2022-08-09T06:45:00.204Z,2.65
2022-08-09T06:47:39.907Z,2.33
2022-08-09T06:50:14.314Z,2.30
2022-08-09T06:52:45.597Z,2.15
2022-08-09T06:55:16.745Z,2.10
2022-08-09T06:58:03.264Z,2.00
2022-08-09T07:00:54.214Z,2.00
2022-08-09T07:03:16.600Z,1.92
2022-08-09T07:06:02.295Z,2.38
2022-08-09T07:08:30.633Z,1.85
2022-08-09T07:10:58.683Z,2.10
2022-08-09T07:13:29.438Z,2.00
2022-08-09T07:16:41.037Z,2.03
2022-08-09T07:18:43.592Z,2.17
2022-08-09T07:21:10.351Z,2.38
2022-08-09T07:23:46.778Z,2.10
2022-08-09T07:26:25.802Z,1.90
2022-08-09T07:29:08.781Z,1.80
2022-08-09T07:31:45.415Z,2.30
2022-08-09T07:34:20.160Z,1.77
2022-08-09T07:36:48.000Z,1.98
2022-08-09T07:39:20.168Z,1.83
2022-08-09T07:42:03.539Z,1.98
2022-08-09T07:44:50.900Z,2.10
2022-08-09T07:47:19.155Z,1.83
2022-08-09T07:50:04.345Z,1.95
2022-08-09T07:52:32.879Z,2.00
2022-08-09T07:54:59.542Z,1.65
2022-08-09T07:57:35.938Z,1.98
2022-08-09T08:00:04.374Z,1.52
2022-08-09T08:02:35.911Z,2.00
2022-08-09T08:05:17.796Z,2.00
2022-08-09T08:09:02.323Z,2.05
2022-08-09T08:10:34.313Z,1.98
2022-08-09T08:13:03.710Z,2.22
2022-08-09T08:15:35.610Z,1.90
2022-08-09T08:18:04.737Z,1.80
2022-08-09T08:20:33.185Z,1.90
2022-08-09T08:23:06.355Z,1.73
2022-08-09T08:25:46.625Z,2.00
2022-08-09T08:28:31.854Z,2.22
2022-08-09T08:31:02.452Z,1.70
2022-08-09T08:33:49.642Z,1.50
2022-08-09T08:36:28.288Z,1.77
2022-08-09T08:38:56.302Z,1.80
2022-08-09T08:41:24.066Z,1.95
2022-08-09T08:43:52.863Z,1.95
2022-08-09T08:46:33.365Z,1.60
2022-08-09T08:49:02.052Z,1.70
2022-08-09T08:51:40.281Z,1.83
2022-08-09T08:54:10.196Z,1.60
2022-08-09T08:56:46.840Z,2.20
2022-08-09T08:59:19.491Z,1.80
2022-08-09T09:01:52.789Z,1.75
2022-08-09T09:04:26.804Z,1.60
2022-08-09T09:06:57.201Z,1.80
2022-08-09T09:09:58.355Z,2.00
2022-08-09T09:12:16.764Z,1.70
2022-08-09T09:14:49.186Z,1.73
2022-08-09T09:17:16.773Z,1.73
2022-08-09T09:19:44.323Z,1.80
2022-08-09T09:22:12.848Z,1.75
2022-08-09T09:24:44.908Z,1.63
2022-08-09T09:28:04.525Z,2.10
2022-08-09T09:30:23.808Z,1.55
2022-08-09T09:33:15.365Z,1.70
2022-08-09T09:36:00.926Z,1.67
2022-08-09T09:38:40.585Z,1.60
2022-08-09T09:41:07.310Z,1.92
2022-08-09T09:43:41.757Z,1.70
2022-08-09T09:46:46.047Z,1.80
2022-08-09T09:49:32.175Z,1.65
2022-08-09T09:52:33.689Z,1.77
2022-08-09T09:55:01.546Z,1.90
2022-08-09T09:58:01.363Z,1.55
2022-08-09T10:00:23.095Z,1.73
2022-08-09T10:02:54.808Z,1.88
2022-08-09T10:05:26.976Z,1.98
2022-08-09T10:08:27.180Z,1.70
2022-08-09T10:10:54.734Z,1.80
2022-08-09T10:13:42.840Z,2.00
2022-08-09T10:16:57.310Z,1.95
2022-08-09T10:18:59.963Z,1.63
2022-08-09T10:21:27.301Z,1.93
2022-08-09T10:23:55.517Z,1.67
2022-08-09T10:26:24.679Z,1.80
2022-08-09T10:29:32.749Z,2.10
2022-08-09T10:32:27.921Z,1.80
2022-08-09T10:34:32.716Z,1.75
2022-08-09T10:37:01.098Z,1.60
2022-08-09T10:39:28.928Z,1.73
2022-08-09T10:41:55.695Z,1.70
2022-08-09T10:44:25.207Z,1.90
2022-08-09T10:48:12.783Z,1.67
2022-08-09T10:50:26.956Z,1.60
2022-08-09T10:53:10.357Z,1.75
2022-08-09T10:55:58.602Z,1.80
2022-08-09T10:58:32.357Z,1.52
2022-08-09T11:03:01.742Z,1.75
2022-08-09T11:04:28.448Z,2.00
2022-08-09T11:07:27.561Z,1.80
2022-08-09T11:10:14.244Z,1.63
2022-08-09T11:12:42.188Z,1.63
2022-08-09T11:15:34.200Z,1.70
2022-08-09T11:18:41.939Z,1.58
2022-08-09T11:21:44.218Z,1.88
2022-08-09T11:24:25.584Z,1.60
2022-08-09T11:26:56.213Z,1.60
2022-08-09T11:30:04.997Z,1.60
2022-08-09T11:32:44.766Z,1.80
2022-08-09T11:35:15.740Z,1.70
2022-08-09T11:37:44.165Z,1.75
2022-08-09T11:40:27.795Z,1.95
2022-08-09T11:42:58.509Z,1.48
2022-08-09T11:45:37.714Z,1.67
2022-08-09T11:48:26.330Z,1.88
2022-08-09T11:51:19.752Z,1.85
2022-08-09T11:54:13.500Z,1.60
2022-08-09T11:56:48.116Z,1.75
2022-08-09T11:59:30.670Z,1.58
2022-08-09T12:02:34.483Z,1.50
2022-08-09T12:04:50.692Z,1.80
2022-08-09T12:07:27.851Z,2.03
2022-08-09T12:09:59.190Z,2.05
2022-08-09T12:12:44.254Z,2.03
2022-08-09T12:15:22.285Z,1.90
2022-08-09T12:18:15.785Z,1.75
2022-08-09T12:20:42.422Z,2.00
2022-08-09T12:23:09.883Z,1.90
2022-08-09T12:25:38.440Z,2.00
2022-08-09T12:29:15.031Z,1.73
2022-08-09T12:31:58.292Z,2.08
2022-08-09T12:34:04.989Z,1.90
2022-08-09T12:36:34.120Z,1.60
2022-08-09T12:39:04.286Z,1.70
2022-08-09T12:41:39.056Z,1.85
2022-08-09T12:44:10.355Z,1.60
2022-08-09T12:46:40.255Z,1.77
2022-08-09T12:49:07.959Z,1.88
2022-08-09T12:52:00.218Z,1.98
2022-08-09T12:54:21.547Z,1.80
2022-08-09T12:56:51.197Z,1.70
2022-08-09T12:59:23.644Z,1.67
2022-08-09T13:02:01.740Z,1.70
2022-08-09T13:04:36.184Z,1.65
2022-08-09T13:07:11.279Z,1.67
2022-08-09T13:09:40.908Z,1.60
2022-08-09T13:12:10.340Z,1.83
2022-08-09T13:14:44.140Z,1.88
2022-08-09T13:17:44.323Z,1.40
2022-08-09T13:20:10.038Z,1.52
2022-08-09T13:23:06.125Z,1.80
2022-08-09T13:25:42.023Z,1.33
2022-08-09T13:28:18.819Z,1.67
2022-08-09T13:32:12.648Z,1.75
2022-08-09T13:33:55.188Z,2.10
2022-08-09T13:36:37.585Z,1.70
2022-08-09T13:41:46.432Z,1.90
2022-08-09T13:42:01.627Z,1.83
2022-08-09T13:44:28.894Z,1.80
2022-08-09T13:47:26.818Z,1.80
2022-08-09T13:49:57.220Z,2.00
2022-08-09T13:52:25.280Z,1.90
2022-08-09T13:54:59.673Z,2.08
2022-08-09T13:57:36.424Z,2.10
2022-08-09T14:00:07.651Z,1.90
2022-08-09T14:02:42.018Z,1.92
2022-08-09T14:05:10.184Z,1.80
2022-08-09T14:07:41.029Z,1.80
2022-08-09T14:10:17.427Z,1.95
2022-08-09T14:12:57.500Z,1.85
2022-08-09T14:16:09.995Z,1.92
2022-08-09T14:18:19.719Z,1.95
2022-08-09T14:20:56.627Z,2.25
2022-08-09T14:23:54.189Z,1.80
2022-08-09T14:26:10.153Z,1.70
2022-08-09T14:28:37.715Z,2.17
2022-08-09T14:31:04.361Z,2.05
2022-08-09T14:33:38.092Z,1.73
2022-08-09T14:36:19.482Z,2.03
2022-08-09T14:41:40.333Z,2.00
2022-08-09T14:44:06.365Z,2.20
2022-08-09T14:46:55.116Z,2.10
2022-08-09T14:49:23.574Z,2.78
2022-08-09T14:51:50.330Z,3.08
2022-08-09T14:54:16.938Z,2.20
2022-08-09T14:56:58.067Z,2.92
2022-08-09T14:59:27.058Z,2.50
2022-08-09T15:01:54.140Z,2.38
2022-08-09T15:04:23.321Z,2.30
2022-08-09T15:06:50.663Z,2.45
2022-08-09T15:10:03.314Z,2.30
2022-08-09T15:12:08.212Z,2.20
2022-08-09T15:17:05.765Z,2.30
2022-08-09T15:19:36.284Z,2.53
2022-08-09T15:22:03.393Z,1.98
2022-08-09T15:24:30.094Z,2.08
2022-08-09T15:26:57.613Z,1.90
2022-08-09T15:30:57.251Z,2.25
2022-08-09T15:32:29.320Z,1.98
2022-08-09T15:34:59.289Z,2.22
2022-08-09T15:37:38.098Z,2.05
2022-08-09T15:40:14.845Z,2.20
2022-08-09T15:42:43.257Z,2.00
2022-08-09T15:45:12.533Z,1.88
2022-08-09T15:47:52.336Z,2.45
2022-08-09T15:50:28.810Z,2.03
2022-08-09T15:53:05.967Z,1.92
2022-08-09T15:55:35.215Z,1.98
2022-08-09T15:58:26.827Z,2.00
2022-08-09T16:00:54.029Z,2.10
2022-08-09T16:03:29.417Z,1.75
2022-08-09T16:06:07.051Z,2.10
2022-08-09T16:08:53.607Z,2.08
2022-08-09T16:11:20.183Z,1.80
2022-08-09T16:14:06.248Z,1.92
2022-08-09T16:16:33.381Z,1.80
2022-08-09T16:19:01.312Z,1.98
2022-08-09T16:21:31.606Z,2.20
2022-08-09T16:24:02.773Z,1.80
2022-08-09T16:26:35.297Z,2.10
2022-08-09T16:29:05.929Z,2.20
2022-08-09T16:32:19.712Z,2.50
2022-08-09T16:34:26.195Z,1.95
2022-08-09T16:36:54.120Z,2.00
2022-08-09T16:39:20.851Z,2.30
2022-08-09T16:42:02.873Z,2.05
2022-08-09T16:44:31.976Z,2.22
2022-08-09T16:47:03.925Z,1.80
2022-08-09T16:50:32.232Z,2.10
2022-08-09T16:52:33.694Z,1.92
2022-08-09T16:55:00.401Z,2.00
2022-08-09T16:57:26.978Z,2.20
2022-08-09T17:00:14.745Z,2.08
2022-08-09T17:02:41.713Z,2.20
2022-08-09T17:05:10.352Z,1.80
2022-08-09T17:08:46.139Z,2.08
2022-08-09T17:10:28.023Z,2.10
2022-08-09T17:12:56.771Z,2.00
2022-08-09T17:15:58.508Z,1.80
2022-08-09T17:18:10.711Z,2.20
2022-08-09T17:20:43.483Z,1.92
2022-08-09T17:23:14.991Z,1.65
2022-08-09T17:25:41.799Z,1.95
2022-08-09T17:28:08.526Z,2.03
2022-08-09T17:30:36.764Z,1.80
2022-08-09T17:33:05.285Z,1.85
2022-08-09T17:35:41.001Z,2.28
2022-08-09T17:38:12.948Z,2.08
2022-08-09T17:40:46.319Z,1.90
2022-08-09T17:43:34.250Z,1.92
2022-08-09T17:46:02.868Z,2.08
2022-08-09T17:48:33.967Z,1.80
2022-08-09T17:51:09.760Z,1.95
2022-08-09T17:53:51.489Z,1.90
2022-08-09T17:56:27.320Z,2.22
2022-08-09T17:58:54.807Z,1.90
2022-08-09T18:01:22.420Z,2.03
2022-08-09T18:03:50.249Z,2.08
2022-08-09T18:06:31.432Z,1.80
2022-08-09T18:09:00.776Z,1.90
2022-08-09T18:11:28.930Z,2.20
2022-08-09T18:13:58.806Z,1.80
2022-08-09T18:16:30.691Z,1.90
2022-08-09T18:18:59.532Z,2.08
2022-08-09T18:21:31.565Z,2.00
2022-08-09T18:24:12.845Z,2.20
2022-08-09T18:26:46.881Z,2.40
2022-08-09T18:30:39.648Z,2.00
2022-08-09T18:32:02.815Z,2.20
2022-08-09T18:34:29.846Z,2.03
2022-08-09T18:36:56.415Z,1.60
2022-08-09T18:39:23.004Z,2.17
2022-08-09T18:41:53.151Z,1.85
2022-08-09T18:44:20.374Z,1.90
2022-08-09T18:47:03.553Z,2.03
2022-08-09T18:49:41.624Z,1.80
2022-08-09T18:52:13.563Z,2.20
2022-08-09T18:54:49.773Z,2.25
2022-08-09T18:57:22.222Z,2.20
2022-08-09T18:59:57.628Z,1.85
2022-08-09T19:02:31.747Z,2.17
2022-08-09T19:05:04.489Z,2.00
2022-08-09T19:07:59.296Z,1.88
2022-08-09T19:10:36.995Z,2.10
2022-08-09T19:13:22.694Z,2.38
2022-08-09T19:15:50.980Z,2.00
2022-08-09T19:18:35.822Z,1.90
2022-08-09T19:21:05.407Z,2.20
2022-08-09T19:24:33.555Z,2.55
2022-08-09T19:26:31.128Z,2.20
2022-08-09T19:29:01.509Z,2.30
2022-08-09T19:31:28.750Z,2.05
2022-08-09T19:33:57.899Z,2.20
2022-08-09T19:36:30.953Z,2.33
2022-08-09T19:38:59.469Z,2.20
2022-08-09T19:41:35.481Z,2.63
2022-08-09T19:44:04.409Z,2.20
2022-08-09T19:46:35.034Z,2.50
2022-08-09T19:50:07.437Z,2.40
2022-08-09T19:52:03.952Z,2.10
2022-08-09T19:54:30.817Z,2.47
2022-08-09T19:56:57.843Z,2.20
2022-08-09T19:59:58.343Z,2.30
2022-08-09T20:02:17.102Z,2.00
2022-08-09T20:04:59.919Z,2.17
2022-08-09T20:07:56.836Z,2.13
2022-08-09T20:10:17.581Z,2.30
2022-08-09T20:12:49.027Z,2.10
2022-08-09T20:16:34.684Z,2.03
2022-08-09T20:18:04.263Z,2.30
2022-08-09T20:20:35.061Z,2.40
2022-08-09T20:23:04.343Z,2.45
2022-08-09T20:25:38.248Z,2.45
2022-08-09T20:28:27.986Z,2.10
2022-08-09T20:31:04.823Z,2.17
2022-08-09T20:33:41.307Z,2.60
2022-08-09T20:36:11.358Z,2.03
2022-08-09T20:39:00.276Z,2.20
2022-08-09T20:41:32.121Z,2.30
2022-08-09T20:44:02.220Z,2.15
2022-08-09T20:46:42.260Z,2.25
2022-08-09T20:49:11.484Z,2.47
2022-08-09T20:51:41.594Z,2.35
2022-08-09T20:54:12.435Z,1.98
2022-08-09T20:56:41.135Z,2.50
2022-08-09T20:59:07.881Z,2.15
2022-08-09T21:01:50.379Z,2.17
2022-08-09T21:05:52.520Z,2.08
2022-08-09T21:07:11.450Z,2.15
2022-08-09T21:09:46.127Z,1.90
2022-08-09T21:15:13.063Z,2.22
2022-08-09T21:18:22.111Z,1.98
2022-08-09T21:20:30.397Z,2.65
2022-08-09T21:22:57.829Z,2.47
2022-08-09T21:25:25.390Z,2.70
2022-08-09T21:27:53.219Z,2.15
2022-08-09T21:30:22.290Z,2.30
2022-08-09T21:32:50.898Z,2.35
2022-08-09T21:35:18.067Z,2.05
2022-08-09T21:37:58.776Z,2.30
2022-08-09T21:40:30.695Z,2.35
2022-08-09T21:42:59.732Z,2.67
2022-08-09T21:45:28.007Z,2.05
2022-08-09T21:47:55.949Z,2.13
2022-08-09T21:50:35.761Z,2.33
2022-08-09T21:53:23.856Z,2.50
2022-08-09T21:55:53.622Z,2.60
2022-08-09T21:58:20.168Z,2.42
2022-08-09T22:00:48.738Z,2.17
2022-08-09T22:03:25.518Z,2.50
2022-08-09T22:05:53.118Z,2.63
2022-08-09T22:08:24.425Z,2.40
2022-08-09T22:11:00.526Z,2.50
2022-08-09T22:13:43.469Z,2.60
2022-08-09T22:16:10.900Z,2.38
2022-08-09T22:18:53.683Z,2.30
2022-08-09T22:21:24.258Z,2.45
2022-08-09T22:23:59.563Z,2.75
2022-08-09T22:26:35.622Z,2.22
2022-08-09T22:29:07.473Z,2.35
2022-08-09T22:31:36.193Z,2.60
2022-08-09T22:34:14.503Z,2.53
2022-08-09T22:36:45.832Z,2.47
2022-08-09T22:39:20.710Z,2.55
2022-08-09T22:41:59.845Z,2.55
2022-08-09T22:44:29.861Z,2.67
2022-08-09T22:48:11.729Z,2.72
2022-08-09T22:49:47.751Z,2.58
2022-08-09T22:52:19.658Z,2.80
2022-08-09T22:54:47.361Z,2.22
2022-08-09T22:57:14.399Z,2.80
2022-08-09T22:59:58.189Z,2.83
2022-08-09T23:02:25.764Z,2.47
2022-08-09T23:04:56.950Z,2.58
2022-08-09T23:08:21.408Z,2.80
2022-08-09T23:10:10.960Z,2.72
2022-08-09T23:12:37.898Z,2.88
2022-08-09T23:15:05.221Z,2.58
2022-08-09T23:17:32.017Z,2.80
2022-08-09T23:20:01.091Z,2.60
2022-08-09T23:22:34.234Z,2.70
2022-08-09T23:25:02.359Z,2.85
2022-08-09T23:27:28.932Z,3.10
2022-08-09T23:29:55.552Z,2.90
2022-08-09T23:32:22.154Z,2.95
2022-08-09T23:34:48.809Z,2.78
2022-08-09T23:37:17.707Z,3.08
2022-08-09T23:39:48.303Z,2.90
2022-08-09T23:42:15.107Z,2.80
2022-08-09T23:44:41.806Z,2.60
2022-08-09T23:47:08.403Z,3.00
2022-08-09T23:49:35.101Z,3.58
2022-08-09T23:52:01.668Z,3.50
2022-08-09T23:54:29.573Z,3.58
2022-08-09T23:56:58.358Z,2.90
2022-08-09T23:59:25.335Z,3.28
